Time;durP1;ratioP1;P1;durP2;ratioP2;P2;SDS_P1;SDS_P2;PMS_P1;PMS_P2;Temp;Humidity;BMP_temperature;BMP_pressure;BME280_temperature;BME280_humidity;BME280_pressure;Samples;Min_cycle;Max_cycle;Signal;HPM_P1;HPM_P2
2022/01/31 00:01:24;;;;;;;2.80;1.23;;;21.80;31.30;;;;;;5045009;28;20118;-57
2022/01/31 00:03:50;;;;;;;2.72;1.38;;;21.80;31.30;;;;;;5044132;28;20596;-53
2022/01/31 00:06:16;;;;;;;3.85;1.60;;;21.70;31.20;;;;;;5036077;28;20352;-54
2022/01/31 00:08:42;;;;;;;2.47;1.00;;;21.80;31.20;;;;;;5052878;28;20340;-50
2022/01/31 00:11:08;;;;;;;1.80;1.00;;;21.80;31.10;;;;;;5047702;28;20033;-50
2022/01/31 00:13:41;;;;;;;2.45;1.15;;;21.80;31.10;;;;;;5036321;28;20040;-50
2022/01/31 00:16:10;;;;;;;2.13;1.23;;;21.80;31.10;;;;;;5052412;28;20041;-51
2022/01/31 00:18:35;;;;;;;3.40;1.27;;;21.80;31.10;;;;;;5052616;28;20035;-50
2022/01/31 00:21:01;;;;;;;2.28;1.25;;;21.70;31.00;;;;;;5018907;28;20026;-52
2022/01/31 00:23:27;;;;;;;4.20;1.30;;;21.70;31.00;;;;;;5050153;28;20428;-52
2022/01/31 00:25:53;;;;;;;2.88;1.10;;;21.80;31.00;;;;;;5055378;28;20036;-52
2022/01/31 00:28:19;;;;;;;2.38;1.20;;;21.80;31.00;;;;;;5047974;28;20056;-54
2022/01/31 00:30:46;;;;;;;2.92;1.30;;;21.80;31.00;;;;;;5055788;28;20381;-53
2022/01/31 00:33:13;;;;;;;4.10;1.08;;;21.80;30.90;;;;;;5037651;28;20024;-57
2022/01/31 00:35:40;;;;;;;2.88;1.30;;;21.80;30.90;;;;;;5028155;28;20052;-53
2022/01/31 00:38:08;;;;;;;3.42;1.20;;;21.80;30.90;;;;;;5055189;28;20098;-53
2022/01/31 00:40:38;;;;;;;3.30;1.48;;;21.70;30.80;;;;;;5026278;28;20033;-48
2022/01/31 00:43:04;;;;;;;1.70;1.00;;;21.70;30.80;;;;;;5017556;28;20025;-55
2022/01/31 00:45:32;;;;;;;2.42;1.17;;;21.70;30.80;;;;;;5026848;28;20036;-54
2022/01/31 00:48:03;;;;;;;2.95;1.13;;;21.70;30.80;;;;;;5054024;28;20032;-51
2022/01/31 00:50:36;;;;;;;2.13;0.93;;;21.70;30.80;;;;;;5036443;28;20025;-53
2022/01/31 00:53:02;;;;;;;2.78;1.13;;;21.70;30.80;;;;;;5026407;28;20009;-54
2022/01/31 00:55:28;;;;;;;2.75;1.25;;;21.70;30.80;;;;;;5017359;28;20042;-53
2022/01/31 00:57:54;;;;;;;2.38;1.25;;;21.70;30.90;;;;;;5027166;28;20047;-52
2022/01/31 01:00:20;;;;;;;4.55;1.20;;;21.70;30.90;;;;;;5038464;28;20049;-54
2022/01/31 01:02:46;;;;;;;3.47;1.17;;;21.70;30.90;;;;;;5027555;28;20348;-50
2022/01/31 01:05:15;;;;;;;2.63;1.33;;;21.70;30.90;;;;;;5028381;28;20112;-52
2022/01/31 01:07:45;;;;;;;2.15;1.10;;;21.70;30.90;;;;;;5035343;28;20025;-53
2022/01/31 01:10:13;;;;;;;2.60;1.30;;;21.70;30.90;;;;;;5038787;28;20100;-49
2022/01/31 01:12:38;;;;;;;3.17;1.20;;;21.70;30.90;;;;;;5049925;28;20029;-52
2022/01/31 01:15:05;;;;;;;3.33;1.40;;;21.70;30.90;;;;;;5035666;28;20091;-53
2022/01/31 01:17:31;;;;;;;2.38;1.23;;;21.60;31.00;;;;;;5028696;28;20059;-51
2022/01/31 01:19:56;;;;;;;2.60;0.95;;;21.70;31.10;;;;;;5047599;28;20025;-52
2022/01/31 01:22:22;;;;;;;3.30;1.25;;;21.70;31.10;;;;;;5032794;28;20033;-53
2022/01/31 01:24:49;;;;;;;2.33;1.20;;;21.60;31.10;;;;;;5022201;28;20044;-52
2022/01/31 01:27:19;;;;;;;2.35;1.10;;;21.60;31.10;;;;;;5034576;28;20436;-54
2022/01/31 01:29:46;;;;;;;2.03;1.10;;;21.60;31.10;;;;;;5026903;28;20032;-53
2022/01/31 01:32:12;;;;;;;3.15;1.45;;;21.60;31.10;;;;;;5037181;28;20059;-55
2022/01/31 01:34:38;;;;;;;2.35;0.90;;;21.60;31.10;;;;;;5033922;28;20108;-54
2022/01/31 01:37:04;;;;;;;3.03;1.30;;;21.60;31.10;;;;;;5039810;28;20512;-52
2022/01/31 01:39:32;;;;;;;3.00;1.23;;;21.60;31.10;;;;;;5036960;28;20037;-54
2022/01/31 01:41:57;;;;;;;2.83;1.13;;;21.60;31.20;;;;;;5051378;28;20032;-51
2022/01/31 01:44:43;;;;;;;2.70;1.20;;;21.60;31.20;;;;;;5036133;28;20029;-54
2022/01/31 01:47:11;;;;;;;1.88;1.02;;;21.60;31.20;;;;;;5031416;28;20098;-52
2022/01/31 01:49:37;;;;;;;1.90;1.00;;;21.60;31.30;;;;;;5049038;28;20424;-56
2022/01/31 01:52:03;;;;;;;1.90;1.00;;;21.60;31.30;;;;;;5023637;28;20029;-56
2022/01/31 01:54:29;;;;;;;2.58;1.02;;;21.60;31.30;;;;;;5052177;28;20051;-56
2022/01/31 01:56:56;;;;;;;1.65;0.80;;;21.60;31.30;;;;;;5028957;28;20030;-53
2022/01/31 01:59:22;;;;;;;2.67;1.30;;;21.60;31.40;;;;;;5031878;28;20036;-50
2022/01/31 02:02:24;;;;;;;3.05;0.98;;;21.50;31.30;;;;;;4975173;28;20109;-50
2022/01/31 02:04:50;;;;;;;2.42;1.00;;;21.50;31.30;;;;;;5010305;28;20199;-51
2022/01/31 02:07:30;;;;;;;1.70;0.85;;;21.50;31.40;;;;;;5040155;28;20029;-54
2022/01/31 02:09:56;;;;;;;1.85;0.90;;;21.50;31.40;;;;;;5036865;28;20028;-51
2022/01/31 02:12:24;;;;;;;1.90;1.10;;;21.50;31.40;;;;;;5044125;28;20042;-55
2022/01/31 02:14:50;;;;;;;1.48;0.93;;;21.50;31.40;;;;;;5024209;28;20425;-53
2022/01/31 02:17:41;;;;;;;1.92;0.90;;;21.50;31.40;;;;;;5051687;28;20049;-51
2022/01/31 02:20:13;;;;;;;1.98;0.90;;;21.50;31.40;;;;;;5020394;28;20026;-52
2022/01/31 02:22:39;;;;;;;1.55;0.85;;;21.50;31.50;;;;;;5031219;28;20488;-54
2022/01/31 02:25:25;;;;;;;1.83;0.70;;;21.40;31.40;;;;;;5036937;28;20034;-50
2022/01/31 02:28:28;;;;;;;2.33;0.80;;;21.50;31.50;;;;;;5002393;28;20034;-57
2022/01/31 02:30:55;;;;;;;1.13;0.75;;;21.40;31.50;;;;;;5031131;28;20033;-54
2022/01/31 02:33:22;;;;;;;2.05;0.85;;;21.40;31.50;;;;;;5035114;28;20033;-52
2022/01/31 02:35:52;;;;;;;3.25;1.20;;;21.40;31.50;;;;;;5024970;28;20022;-51
2022/01/31 02:38:18;;;;;;;1.55;0.80;;;21.40;31.60;;;;;;5020554;28;20038;-48
2022/01/31 02:40:50;;;;;;;1.00;0.57;;;21.40;31.60;;;;;;5040154;28;20033;-49
2022/01/31 02:43:24;;;;;;;2.08;0.82;;;21.40;31.60;;;;;;5050479;28;20020;-52
2022/01/31 02:45:51;;;;;;;1.40;0.60;;;21.40;31.60;;;;;;5035974;28;20112;-53
2022/01/31 02:48:21;;;;;;;2.15;0.70;;;21.40;31.70;;;;;;5031040;28;20038;-51
2022/01/31 02:50:47;;;;;;;2.03;0.77;;;21.40;31.70;;;;;;5023582;28;20336;-55
2022/01/31 02:53:22;;;;;;;1.95;0.68;;;21.40;31.70;;;;;;5021451;28;20163;-55
2022/01/31 02:55:50;;;;;;;1.95;0.90;;;21.40;31.80;;;;;;5030391;28;20049;-54
2022/01/31 02:58:20;;;;;;;1.20;0.70;;;21.40;31.80;;;;;;5038690;28;20107;-54
2022/01/31 03:00:48;;;;;;;2.33;0.95;;;21.40;31.80;;;;;;5025749;28;20025;-55
2022/01/31 03:03:17;;;;;;;1.20;0.60;;;21.40;31.90;;;;;;5030414;28;20029;-55
2022/01/31 03:05:42;;;;;;;1.98;0.80;;;21.40;31.90;;;;;;5030364;28;20021;-54
2022/01/31 03:08:09;;;;;;;2.50;0.85;;;21.40;31.90;;;;;;5023190;28;20029;-56
2022/01/31 03:10:35;;;;;;;1.30;0.63;;;21.40;32.00;;;;;;5030377;28;20110;-56
2022/01/31 03:13:01;;;;;;;1.42;0.55;;;21.40;32.00;;;;;;5027533;28;20029;-58
2022/01/31 03:15:30;;;;;;;1.25;0.70;;;21.40;32.10;;;;;;5019700;28;20072;-51
2022/01/31 03:18:22;;;;;;;1.15;0.57;;;21.40;32.10;;;;;;5041733;28;20053;-51
2022/01/31 03:20:48;;;;;;;1.42;0.70;;;21.30;32.10;;;;;;5019037;28;20086;-52
2022/01/31 03:23:13;;;;;;;1.10;0.50;;;21.40;32.20;;;;;;5033743;28;20028;-57
2022/01/31 03:25:39;;;;;;;1.52;0.70;;;21.30;32.20;;;;;;5030139;28;20029;-53
2022/01/31 03:28:05;;;;;;;1.02;0.70;;;21.30;32.20;;;;;;5043972;28;20025;-55
2022/01/31 03:30:31;;;;;;;1.35;0.70;;;21.40;32.30;;;;;;5038139;28;20467;-55
2022/01/31 03:32:56;;;;;;;1.83;0.75;;;21.40;32.40;;;;;;5047874;28;20021;-54
2022/01/31 03:35:23;;;;;;;0.95;0.52;;;21.40;33.00;;;;;;5031083;28;20112;-53
2022/01/31 03:37:50;;;;;;;2.67;0.68;;;21.30;32.30;;;;;;5035761;28;20036;-54
2022/01/31 03:40:21;;;;;;;1.60;0.80;;;21.30;32.30;;;;;;5030294;28;20033;-52
2022/01/31 03:42:48;;;;;;;1.48;0.50;;;21.30;32.30;;;;;;5018883;28;20017;-54
2022/01/31 03:45:14;;;;;;;1.48;0.63;;;21.30;32.40;;;;;;5042583;28;20033;-52
2022/01/31 03:47:44;;;;;;;1.60;0.60;;;21.30;32.40;;;;;;5024690;28;20036;-52
2022/01/31 03:50:15;;;;;;;0.88;0.60;;;21.30;32.50;;;;;;5032960;28;20029;-57
2022/01/31 03:52:42;;;;;;;1.52;0.80;;;21.30;32.50;;;;;;5019488;28;20036;-54
2022/01/31 03:55:10;;;;;;;1.15;0.52;;;21.30;32.50;;;;;;5015090;28;20069;-56
2022/01/31 03:57:36;;;;;;;1.00;0.52;;;21.30;32.50;;;;;;5039735;28;20092;-53
2022/01/31 04:00:19;;;;;;;1.60;0.70;;;21.30;32.60;;;;;;5015168;28;20033;-55
2022/01/31 04:02:45;;;;;;;1.70;0.60;;;21.20;32.50;;;;;;5034299;28;20336;-55
2022/01/31 04:05:11;;;;;;;1.85;0.90;;;21.30;32.60;;;;;;5027416;28;20188;-58
2022/01/31 04:07:36;;;;;;;1.10;0.50;;;21.30;32.70;;;;;;5036352;28;20033;-54
2022/01/31 04:10:04;;;;;;;1.52;0.60;;;21.30;32.70;;;;;;5023157;28;20022;-54
2022/01/31 04:12:30;;;;;;;1.65;0.70;;;21.20;32.60;;;;;;5036317;28;20033;-59
2022/01/31 04:14:55;;;;;;;1.55;0.50;;;21.20;32.70;;;;;;5023616;28;20040;-51
2022/01/31 04:17:21;;;;;;;2.13;0.80;;;21.30;32.70;;;;;;5022804;28;20484;-56
2022/01/31 04:19:48;;;;;;;1.27;0.65;;;21.20;32.70;;;;;;5025781;28;20037;-54
2022/01/31 04:22:17;;;;;;;2.15;0.73;;;21.30;32.80;;;;;;5030337;28;20060;-56
2022/01/31 04:24:46;;;;;;;1.10;0.60;;;21.20;32.70;;;;;;5035441;28;20029;-54
2022/01/31 04:27:17;;;;;;;1.15;0.52;;;21.20;32.70;;;;;;5029035;28;20349;-56
2022/01/31 04:29:44;;;;;;;1.42;0.63;;;21.20;32.70;;;;;;5023223;28;20101;-52
2022/01/31 04:32:10;;;;;;;2.35;0.95;;;21.20;32.70;;;;;;5020118;28;20049;-53
2022/01/31 04:34:36;;;;;;;0.93;0.60;;;21.20;32.70;;;;;;5034137;28;20057;-53
2022/01/31 04:37:02;;;;;;;2.33;0.60;;;21.20;32.70;;;;;;5016100;28;20044;-51
2022/01/31 04:39:29;;;;;;;1.13;0.50;;;21.20;32.70;;;;;;5016607;28;20038;-51
2022/01/31 04:41:56;;;;;;;1.75;0.70;;;21.20;32.80;;;;;;5026189;28;20037;-52
2022/01/31 04:44:22;;;;;;;1.67;0.60;;;21.20;32.70;;;;;;5034457;28;20052;-53
2022/01/31 04:46:51;;;;;;;1.48;0.70;;;21.20;32.70;;;;;;5020656;28;20112;-53
2022/01/31 04:49:19;;;;;;;1.02;0.52;;;21.20;32.80;;;;;;5030962;28;20037;-54
2022/01/31 04:51:45;;;;;;;2.15;0.93;;;21.20;32.70;;;;;;5031657;28;20050;-52
2022/01/31 04:54:11;;;;;;;1.95;0.60;;;21.20;32.80;;;;;;5024592;28;20049;-56
2022/01/31 04:56:40;;;;;;;2.47;0.90;;;21.20;32.70;;;;;;5035465;28;20029;-58
2022/01/31 04:59:06;;;;;;;1.92;0.88;;;21.20;32.70;;;;;;5043872;28;20042;-50
2022/01/31 05:01:32;;;;;;;1.88;0.82;;;21.20;32.70;;;;;;5037119;28;20048;-55
2022/01/31 05:03:57;;;;;;;1.83;0.70;;;21.20;32.70;;;;;;5052037;28;20047;-55
2022/01/31 05:06:31;;;;;;;1.60;0.50;;;21.20;32.70;;;;;;5046097;28;20114;-53
2022/01/31 05:08:57;;;;;;;1.80;0.70;;;21.20;32.70;;;;;;5036679;28;20029;-53
2022/01/31 05:11:22;;;;;;;2.28;0.73;;;21.20;32.80;;;;;;5036366;28;20017;-56
2022/01/31 05:13:48;;;;;;;1.50;0.70;;;21.10;32.70;;;;;;5052697;28;20036;-54
2022/01/31 05:16:14;;;;;;;2.28;0.70;;;21.20;32.80;;;;;;5046683;28;20387;-56
2022/01/31 05:18:39;;;;;;;2.63;0.70;;;21.10;32.70;;;;;;5045502;28;20041;-53
2022/01/31 05:21:07;;;;;;;2.38;0.93;;;21.10;32.80;;;;;;5045130;28;20091;-53
2022/01/31 05:23:34;;;;;;;2.13;0.95;;;21.10;32.80;;;;;;5045574;28;20336;-55
2022/01/31 05:26:00;;;;;;;1.88;0.77;;;21.10;32.80;;;;;;5046628;28;20022;-54
2022/01/31 05:28:26;;;;;;;1.80;0.60;;;21.10;32.80;;;;;;5036317;28;20045;-53
2022/01/31 05:30:51;;;;;;;1.67;0.60;;;21.10;32.80;;;;;;5042453;28;20033;-52
2022/01/31 05:33:17;;;;;;;1.63;0.60;;;21.10;32.80;;;;;;5034587;28;20021;-53
2022/01/31 05:35:45;;;;;;;1.65;0.60;;;21.10;32.80;;;;;;5047602;28;20032;-52
2022/01/31 05:38:11;;;;;;;2.60;0.80;;;21.10;32.80;;;;;;5034943;28;20077;-55
2022/01/31 05:40:37;;;;;;;1.77;0.70;;;21.10;32.80;;;;;;5035868;28;20107;-56
2022/01/31 05:43:02;;;;;;;1.77;0.60;;;21.10;32.80;;;;;;5048307;28;20033;-52
2022/01/31 05:45:28;;;;;;;2.33;0.75;;;21.10;32.80;;;;;;5053291;28;20037;-53
2022/01/31 05:47:54;;;;;;;2.30;0.63;;;21.10;32.80;;;;;;5038652;28;20025;-53
2022/01/31 05:50:20;;;;;;;1.58;0.70;;;21.10;32.80;;;;;;5038164;28;20033;-52
2022/01/31 05:52:45;;;;;;;1.65;0.70;;;21.10;32.80;;;;;;5037553;28;20113;-58
2022/01/31 05:55:13;;;;;;;1.08;0.47;;;21.10;32.80;;;;;;5050320;28;20052;-55
2022/01/31 05:57:39;;;;;;;3.00;0.73;;;21.10;32.80;;;;;;5054761;28;20048;-54
2022/01/31 06:00:07;;;;;;;1.08;0.50;;;21.00;32.80;;;;;;5044745;28;20054;-53
2022/01/31 06:02:32;;;;;;;2.13;0.60;;;21.10;32.90;;;;;;5049058;28;20032;-56
2022/01/31 06:05:00;;;;;;;1.50;0.47;;;21.10;32.80;;;;;;5035163;28;20032;-54
2022/01/31 06:07:26;;;;;;;0.88;0.47;;;21.00;32.80;;;;;;5047195;28;20367;-58
2022/01/31 06:09:52;;;;;;;2.13;0.70;;;21.10;32.80;;;;;;5054666;28;20021;-58
2022/01/31 06:12:17;;;;;;;1.38;0.52;;;21.00;32.80;;;;;;5047491;28;20044;-53
2022/01/31 06:14:43;;;;;;;1.10;0.50;;;21.00;33.40;;;;;;5037699;28;20504;-55
2022/01/31 06:17:09;;;;;;;1.23;0.52;;;21.00;32.70;;;;;;5047422;28;20348;-57
2022/01/31 06:19:35;;;;;;;1.52;0.52;;;21.00;32.70;;;;;;5037074;28;20048;-53
2022/01/31 06:22:01;;;;;;;0.90;0.50;;;21.00;32.70;;;;;;5038804;28;20025;-54
2022/01/31 06:24:27;;;;;;;1.35;0.47;;;21.00;32.80;;;;;;5036533;28;20314;-53
2022/01/31 06:26:53;;;;;;;0.90;0.43;;;21.00;32.80;;;;;;5034091;28;20301;-57
2022/01/31 06:29:21;;;;;;;1.20;0.55;;;21.00;32.80;;;;;;5035634;28;20059;-57
2022/01/31 06:31:48;;;;;;;1.60;0.50;;;21.00;32.80;;;;;;5028204;28;20024;-56
2022/01/31 06:34:14;;;;;;;1.17;0.38;;;21.00;32.80;;;;;;5039728;28;20029;-54
2022/01/31 06:36:39;;;;;;;1.42;0.60;;;21.00;32.80;;;;;;5044843;28;20031;-52
2022/01/31 06:39:05;;;;;;;1.92;0.70;;;21.00;32.80;;;;;;5048458;28;20030;-53
2022/01/31 06:41:31;;;;;;;0.95;0.50;;;21.00;32.80;;;;;;5037864;28;20111;-51
2022/01/31 06:43:57;;;;;;;1.70;0.75;;;21.00;32.80;;;;;;5043656;28;20082;-52
2022/01/31 06:46:23;;;;;;;2.58;0.80;;;21.00;33.50;;;;;;5057379;28;20033;-51
2022/01/31 06:48:48;;;;;;;1.63;0.57;;;21.00;32.90;;;;;;5049414;28;20022;-54
2022/01/31 06:51:15;;;;;;;2.25;0.77;;;21.00;32.90;;;;;;5042637;28;20332;-56
2022/01/31 06:53:41;;;;;;;1.33;0.50;;;21.00;32.90;;;;;;5056502;28;20486;-54
2022/01/31 06:56:08;;;;;;;2.38;0.65;;;21.00;32.90;;;;;;5049294;28;20124;-50
2022/01/31 06:58:34;;;;;;;2.00;0.50;;;21.00;33.00;;;;;;5037307;28;20072;-52
2022/01/31 07:00:59;;;;;;;1.45;0.70;;;21.00;33.00;;;;;;5039770;28;20445;-56
2022/01/31 07:03:25;;;;;;;1.40;0.63;;;21.00;33.00;;;;;;5051099;28;20037;-52
2022/01/31 07:05:51;;;;;;;1.83;0.55;;;20.90;32.90;;;;;;5054235;28;20437;-55
2022/01/31 07:08:17;;;;;;;1.83;0.77;;;20.90;33.00;;;;;;5044328;28;20033;-55
2022/01/31 07:10:51;;;;;;;0.82;0.47;;;21.00;33.00;;;;;;5056368;28;20334;-53
2022/01/31 07:15:58;;;;;;;2.10;0.65;;;20.90;33.00;;;;;;5048297;28;20323;-57
2022/01/31 07:18:24;;;;;;;0.75;0.47;;;20.90;33.10;;;;;;5042328;28;20037;-56
2022/01/31 07:20:52;;;;;;;1.55;0.50;;;20.90;33.10;;;;;;5043574;28;20063;-56
2022/01/31 07:23:26;;;;;;;1.60;0.50;;;20.90;33.10;;;;;;5036857;28;20334;-54
2022/01/31 07:25:52;;;;;;;0.90;0.60;;;20.90;33.10;;;;;;5046656;28;20024;-54
2022/01/31 07:28:19;;;;;;;0.93;0.60;;;20.90;33.10;;;;;;5036898;28;20337;-54
2022/01/31 07:30:48;;;;;;;1.63;0.68;;;20.90;33.10;;;;;;5038055;28;20022;-47
2022/01/31 07:33:15;;;;;;;1.60;0.70;;;20.90;33.10;;;;;;5044652;28;20079;-53
2022/01/31 07:35:42;;;;;;;1.27;0.50;;;20.90;33.10;;;;;;5051007;28;20103;-52
2022/01/31 07:38:08;;;;;;;1.92;0.60;;;20.90;33.20;;;;;;5053611;28;20029;-54
2022/01/31 07:40:33;;;;;;;1.60;0.60;;;20.90;33.30;;;;;;5046621;28;20013;-52
2022/01/31 07:42:59;;;;;;;2.78;0.70;;;20.80;33.30;;;;;;5054952;28;20047;-50
2022/01/31 07:45:26;;;;;;;1.13;0.60;;;20.80;33.40;;;;;;5049910;28;20021;-51
2022/01/31 07:47:52;;;;;;;1.55;0.65;;;20.90;33.50;;;;;;5051373;28;20039;-56
2022/01/31 07:50:19;;;;;;;2.17;0.82;;;20.90;33.50;;;;;;5054285;28;20036;-56
2022/01/31 07:52:44;;;;;;;1.17;0.50;;;21.00;33.50;;;;;;5055557;28;20033;-52
2022/01/31 07:55:12;;;;;;;3.65;0.90;;;21.00;33.50;;;;;;5048323;28;20070;-53
2022/01/31 07:57:40;;;;;;;3.00;0.80;;;21.10;33.50;;;;;;5051326;28;20037;-52
2022/01/31 08:00:07;;;;;;;2.55;0.98;;;21.20;33.50;;;;;;5056192;28;20028;-56
2022/01/31 08:02:42;;;;;;;2.55;0.80;;;21.30;33.50;;;;;;5036964;28;20041;-54
2022/01/31 08:05:09;;;;;;;2.22;0.77;;;21.40;33.50;;;;;;5035915;28;20057;-54
2022/01/31 08:07:36;;;;;;;2.25;0.80;;;21.50;33.50;;;;;;5043683;28;20090;-57
2022/01/31 08:10:04;;;;;;;2.80;0.88;;;21.60;33.40;;;;;;5055168;28;20351;-52
2022/01/31 08:12:31;;;;;;;2.47;0.68;;;21.70;33.40;;;;;;5047419;28;20491;-53
2022/01/31 08:15:03;;;;;;;2.63;0.77;;;21.80;33.40;;;;;;5048002;28;20035;-51
2022/01/31 08:17:29;;;;;;;1.50;0.63;;;21.90;33.30;;;;;;5025768;28;20041;-55
2022/01/31 08:19:55;;;;;;;1.75;0.75;;;22.00;33.20;;;;;;5053510;28;20055;-55
2022/01/31 08:22:21;;;;;;;2.05;0.80;;;22.10;33.20;;;;;;5047182;28;20463;-54
2022/01/31 08:24:46;;;;;;;1.88;0.68;;;22.20;33.10;;;;;;5037645;28;20013;-54
2022/01/31 08:27:12;;;;;;;3.13;0.70;;;22.20;33.10;;;;;;5035689;28;20056;-55
2022/01/31 08:29:41;;;;;;;2.35;0.60;;;22.30;33.00;;;;;;5046109;28;20033;-53
2022/01/31 08:32:23;;;;;;;2.08;0.80;;;22.30;33.00;;;;;;5040746;28;20430;-52
2022/01/31 08:37:33;;;;;;;1.63;0.88;;;22.50;32.90;;;;;;5054071;28;20095;-55
2022/01/31 08:39:59;;;;;;;2.22;0.90;;;22.60;32.90;;;;;;5075152;28;20059;-58
2022/01/31 08:42:28;;;;;;;2.05;1.13;;;22.60;32.80;;;;;;5049167;28;20057;-52
2022/01/31 08:44:53;;;;;;;2.50;0.95;;;22.70;32.70;;;;;;5036345;28;20025;-56
2022/01/31 08:47:19;;;;;;;1.85;0.90;;;22.80;32.70;;;;;;5036925;28;20132;-52
2022/01/31 08:49:45;;;;;;;1.80;0.70;;;22.80;32.60;;;;;;5066853;28;20035;-52
2022/01/31 08:52:11;;;;;;;1.90;0.70;;;22.90;32.60;;;;;;5056063;28;20452;-56
2022/01/31 08:54:37;;;;;;;2.78;0.80;;;23.00;32.60;;;;;;5041567;28;20037;-59
2022/01/31 08:57:03;;;;;;;2.38;0.90;;;23.00;32.50;;;;;;5052838;28;20421;-54
2022/01/31 08:59:29;;;;;;;3.15;1.00;;;23.10;32.50;;;;;;5032585;28;20187;-53
2022/01/31 09:02:05;;;;;;;2.05;0.98;;;23.10;32.40;;;;;;5052537;28;20112;-56
2022/01/31 09:04:47;;;;;;;1.75;0.60;;;23.10;32.30;;;;;;5041436;28;20052;-55
2022/01/31 09:07:15;;;;;;;2.42;1.17;;;23.20;32.30;;;;;;5035602;28;20030;-51
2022/01/31 09:09:41;;;;;;;2.67;0.70;;;23.30;32.30;;;;;;5035015;28;20029;-49
2022/01/31 09:12:09;;;;;;;5.18;1.23;;;23.30;32.30;;;;;;5042402;28;20047;-56
2022/01/31 09:14:35;;;;;;;3.83;1.33;;;23.30;32.20;;;;;;5048288;28;20017;-57
2022/01/31 09:17:02;;;;;;;2.65;0.85;;;23.40;32.20;;;;;;5050550;28;20029;-54
2022/01/31 09:19:28;;;;;;;1.75;0.80;;;23.40;32.80;;;;;;5034788;28;20021;-56
2022/01/31 09:21:53;;;;;;;2.40;1.08;;;23.40;32.10;;;;;;5052511;28;20495;-53
2022/01/31 09:24:20;;;;;;;2.92;1.05;;;23.50;32.00;;;;;;5024294;28;20428;-46
2022/01/31 09:26:47;;;;;;;2.97;0.93;;;23.50;32.00;;;;;;5050857;28;20029;-56
2022/01/31 09:29:12;;;;;;;2.03;0.90;;;23.50;32.00;;;;;;5052150;28;20037;-56
2022/01/31 09:31:38;;;;;;;2.38;0.80;;;23.60;31.90;;;;;;5048264;28;20079;-58
2022/01/31 09:34:06;;;;;;;3.00;1.17;;;23.60;31.90;;;;;;5049072;28;20424;-52
2022/01/31 09:36:32;;;;;;;1.67;0.68;;;23.60;31.90;;;;;;5053986;28;20025;-50
2022/01/31 09:38:58;;;;;;;2.30;0.77;;;23.70;31.90;;;;;;5054577;28;20025;-56
2022/01/31 09:41:26;;;;;;;2.40;1.20;;;23.70;31.90;;;;;;5051307;28;20016;-53
2022/01/31 09:44:07;;;;;;;1.63;0.90;;;23.70;31.80;;;;;;5034758;28;20159;-53
2022/01/31 09:49:18;;;;;;;2.45;1.15;;;23.70;31.80;;;;;;5043586;28;20467;-52
2022/01/31 09:51:44;;;;;;;2.75;1.05;;;23.70;31.80;;;;;;5053890;28;20079;-57
2022/01/31 09:54:10;;;;;;;2.72;1.20;;;23.70;31.80;;;;;;5054355;28;20021;-49
2022/01/31 09:56:39;;;;;;;1.92;0.90;;;23.70;31.90;;;;;;5053696;28;20024;-51
2022/01/31 09:59:07;;;;;;;2.70;1.10;;;23.60;31.80;;;;;;5054781;28;20129;-51
2022/01/31 10:01:42;;;;;;;2.50;1.10;;;23.70;31.90;;;;;;5052963;28;20025;-56
2022/01/31 10:04:20;;;;;;;2.95;1.23;;;23.60;31.90;;;;;;5053862;28;20396;-49
2022/01/31 10:06:54;;;;;;;3.92;1.33;;;23.60;32.00;;;;;;5055555;28;20033;-56
2022/01/31 10:09:22;;;;;;;3.22;1.05;;;23.50;32.00;;;;;;5053498;28;20124;-58
2022/01/31 10:12:06;;;;;;;2.83;1.45;;;23.50;32.10;;;;;;5050104;28;20367;-54
2022/01/31 10:17:33;;;;;;;4.35;1.42;;;23.40;32.10;;;;;;5055481;28;20048;-59
2022/01/31 10:20:08;;;;;;;3.35;1.20;;;23.30;32.10;;;;;;5057370;28;20028;-55
2022/01/31 10:22:36;;;;;;;3.72;1.27;;;23.30;32.30;;;;;;5056022;28;20044;-59
2022/01/31 10:25:08;;;;;;;2.40;1.05;;;23.20;32.30;;;;;;5058698;28;20021;-58
2022/01/31 10:27:36;;;;;;;4.63;1.38;;;23.20;32.40;;;;;;5054143;28;20036;-57
2022/01/31 10:30:10;;;;;;;3.28;1.10;;;23.10;32.40;;;;;;5044505;28;20029;-55
2022/01/31 10:32:37;;;;;;;4.07;1.42;;;23.10;32.40;;;;;;5053218;28;20445;-51
2022/01/31 10:35:16;;;;;;;3.63;1.40;;;23.00;32.50;;;;;;5053601;28;20123;-54
2022/01/31 10:37:42;;;;;;;2.80;1.40;;;23.00;32.50;;;;;;5052173;28;20036;-52
2022/01/31 10:56:42;;;;;;;3.22;1.65;;;22.90;32.50;;;;;;5042711;28;20032;-57
2022/01/31 10:59:17;;;;;;;4.45;1.60;;;22.90;32.50;;;;;;5048716;28;20305;-58
2022/01/31 11:01:47;;;;;;;3.10;1.13;;;22.80;32.20;;;;;;5025914;28;20318;-49
2022/01/31 11:04:15;;;;;;;5.22;1.92;;;22.70;32.10;;;;;;5037566;28;20057;-47
2022/01/31 11:06:46;;;;;;;5.70;2.08;;;22.70;32.20;;;;;;5041705;28;20424;-56
2022/01/31 11:09:14;;;;;;;2.97;1.40;;;22.70;32.30;;;;;;5056393;28;20037;-49
2022/01/31 11:11:47;;;;;;;4.03;1.55;;;22.60;32.30;;;;;;5055444;28;20052;-48
2022/01/31 11:14:14;;;;;;;4.18;1.58;;;22.70;32.30;;;;;;5051637;28;20043;-55
2022/01/31 11:16:42;;;;;;;2.97;1.20;;;22.70;32.30;;;;;;5042573;28;20029;-52
2022/01/31 11:19:10;;;;;;;4.00;1.58;;;22.70;32.40;;;;;;5035296;28;20363;-59
2022/01/31 11:21:43;;;;;;;4.47;1.60;;;22.80;32.50;;;;;;5044366;28;20021;-52
2022/01/31 11:24:20;;;;;;;3.22;1.60;;;22.80;32.40;;;;;;5046015;28;20447;-50
2022/01/31 11:27:07;;;;;;;4.57;1.45;;;22.80;32.40;;;;;;5036357;28;20078;-54
2022/01/31 11:29:36;;;;;;;3.67;1.30;;;22.80;32.40;;;;;;5040523;28;20041;-50
2022/01/31 11:32:04;;;;;;;3.95;1.30;;;22.90;32.40;;;;;;5052409;28;20293;-48
2022/01/31 11:34:30;;;;;;;2.83;1.25;;;22.90;32.40;;;;;;5059552;28;20021;-54
2022/01/31 11:36:57;;;;;;;2.45;1.00;;;22.90;32.40;;;;;;5055473;28;20044;-48
2022/01/31 11:39:23;;;;;;;3.50;1.10;;;22.90;32.40;;;;;;5056183;28;20036;-50
2022/01/31 11:42:00;;;;;;;3.17;1.38;;;22.90;32.40;;;;;;5055729;28;20052;-52
2022/01/31 11:44:50;;;;;;;2.65;1.20;;;23.00;32.50;;;;;;5055678;28;20029;-46
2022/01/31 11:47:22;;;;;;;3.53;1.45;;;23.00;32.50;;;;;;5055328;28;20040;-53
2022/01/31 11:49:56;;;;;;;2.88;1.25;;;22.90;32.40;;;;;;5049979;28;20391;-53
2022/01/31 11:52:23;;;;;;;3.57;1.47;;;22.90;32.40;;;;;;5038517;28;20033;-54
2022/01/31 11:54:58;;;;;;;3.08;1.50;;;22.90;32.40;;;;;;5040135;28;20299;-47
2022/01/31 11:57:28;;;;;;;3.05;1.30;;;22.90;32.50;;;;;;5050560;28;20028;-48
2022/01/31 11:59:59;;;;;;;1.90;0.90;;;23.00;32.60;;;;;;5040284;28;20072;-50
2022/01/31 12:02:30;;;;;;;3.58;1.15;;;23.00;32.50;;;;;;5036425;28;20025;-53
2022/01/31 12:05:01;;;;;;;5.95;1.25;;;23.00;32.50;;;;;;5035241;28;20068;-53
2022/01/31 12:07:44;;;;;;;2.78;1.27;;;23.00;33.20;;;;;;5038433;28;20025;-51
2022/01/31 12:10:26;;;;;;;2.53;0.90;;;23.00;32.50;;;;;;5017832;28;20116;-51
2022/01/31 12:15:40;;;;;;;3.88;1.10;;;23.00;32.60;;;;;;5035122;28;20116;-49
2022/01/31 12:18:54;;;;;;;3.13;1.35;;;23.00;32.60;;;;;;5042572;28;20318;-46
2022/01/31 12:24:29;;;;;;;2.30;1.15;;;23.00;32.50;;;;;;5053122;28;20499;-53
2022/01/31 12:26:59;;;;;;;2.42;1.00;;;23.10;32.60;;;;;;5037215;28;20021;-59
2022/01/31 12:29:29;;;;;;;4.32;1.30;;;23.00;32.60;;;;;;5039589;28;20068;-54
2022/01/31 12:31:58;;;;;;;2.67;0.90;;;23.10;32.70;;;;;;5040105;28;20060;-56
2022/01/31 12:34:34;;;;;;;2.38;0.90;;;23.10;32.70;;;;;;5048905;28;20023;-56
2022/01/31 12:37:16;;;;;;;2.13;1.00;;;23.20;32.90;;;;;;5054277;28;20033;-59
2022/01/31 12:39:44;;;;;;;2.33;1.05;;;23.20;33.10;;;;;;5049600;28;20417;-54
2022/01/31 12:42:43;;;;;;;2.33;0.93;;;23.20;33.20;;;;;;5037050;28;20112;-54
2022/01/31 12:45:11;;;;;;;3.38;1.25;;;23.30;33.30;;;;;;5042467;28;20039;-52
2022/01/31 12:47:37;;;;;;;1.67;0.70;;;23.30;33.30;;;;;;5041509;28;20426;-54
2022/01/31 12:50:21;;;;;;;3.00;1.27;;;23.40;33.30;;;;;;5041654;28;20105;-56
2022/01/31 12:52:47;;;;;;;2.50;0.85;;;23.40;33.20;;;;;;5035273;28;20040;-59
2022/01/31 12:55:14;;;;;;;2.30;1.10;;;23.40;33.20;;;;;;5045792;28;20455;-56
2022/01/31 12:57:53;;;;;;;1.50;0.77;;;23.40;33.10;;;;;;5035326;28;20060;-52
2022/01/31 13:00:41;;;;;;;3.33;1.17;;;23.40;33.10;;;;;;5046342;28;20080;-54
2022/01/31 13:03:08;;;;;;;2.15;0.93;;;23.50;33.10;;;;;;5048762;28;20036;-56
2022/01/31 13:05:39;;;;;;;2.33;0.85;;;23.40;33.00;;;;;;5050601;28;20036;-56
2022/01/31 13:08:23;;;;;;;2.13;1.08;;;23.50;33.10;;;;;;5045621;28;20509;-56
2022/01/31 13:10:51;;;;;;;2.20;1.03;;;23.40;33.40;;;;;;5052638;28;20424;-59
2022/01/31 13:13:39;;;;;;;2.17;1.08;;;23.50;33.50;;;;;;5047861;28;20691;-58
2022/01/31 13:16:11;;;;;;;2.15;1.15;;;23.50;33.50;;;;;;5052356;28;20051;-56
2022/01/31 13:18:38;;;;;;;2.53;0.80;;;23.50;33.60;;;;;;5050206;28;20041;-60
2022/01/31 13:21:07;;;;;;;3.25;1.30;;;23.50;33.50;;;;;;5050842;28;20025;-54
2022/01/31 13:23:40;;;;;;;2.03;0.90;;;23.50;33.50;;;;;;5035022;28;20071;-56
2022/01/31 13:26:10;;;;;;;1.90;1.00;;;23.60;33.50;;;;;;5036615;28;20052;-57
2022/01/31 13:28:36;;;;;;;3.05;0.98;;;23.60;33.70;;;;;;5047558;28;20754;-57
2022/01/31 13:31:10;;;;;;;3.38;1.15;;;23.60;33.70;;;;;;5048378;28;20025;-59